createdAt,value
2023-08-12T00:01:41.074Z,101880.72
2023-08-12T00:04:09.412Z,101891.13
2023-08-12T00:06:37.647Z,101891.72
2023-08-12T00:09:06.227Z,101897.34
2023-08-12T00:11:34.554Z,101893.88
2023-08-12T00:14:02.803Z,101897.56
2023-08-12T00:16:33.526Z,101902.72
2023-08-12T00:19:01.922Z,101903.66
2023-08-12T00:21:30.106Z,101905.47
2023-08-12T00:23:58.405Z,101897.38
2023-08-12T00:26:26.737Z,101894.88
2023-08-12T00:28:54.951Z,101890.25
2023-08-12T00:31:23.190Z,101889.97
2023-08-12T00:33:52.822Z,101892.88
2023-08-12T00:36:21.066Z,101887.66
2023-08-12T00:38:49.420Z,101887.56
2023-08-12T00:41:17.654Z,101882.34
2023-08-12T00:43:45.862Z,101880.59
2023-08-12T00:46:15.616Z,101884.97
2023-08-12T00:48:44.830Z,101891.50
2023-08-12T00:51:14.604Z,101891.38
2023-08-12T00:53:43.159Z,101891.31
2023-08-12T00:56:11.954Z,101882.13
2023-08-12T00:58:40.806Z,101880.25
2023-08-12T01:01:09.661Z,101882.06
2023-08-12T01:03:37.967Z,101884.75
2023-08-12T01:06:09.592Z,101880.38
2023-08-12T01:08:39.206Z,101887.44
2023-08-12T01:11:16.795Z,101883.66
2023-08-12T01:13:52.075Z,101887.97
2023-08-12T01:16:23.599Z,101890.44
2023-08-12T01:18:52.323Z,101877.84
2023-08-12T01:21:23.610Z,101884.00
2023-08-12T01:23:54.514Z,101881.31
2023-08-12T01:26:24.532Z,101883.03
2023-08-12T01:28:52.760Z,101873.19
2023-08-12T01:31:30.490Z,101877.69
2023-08-12T01:34:09.930Z,101871.44
2023-08-12T01:36:42.220Z,101865.19
2023-08-12T01:39:13.503Z,101854.50
2023-08-12T01:41:42.000Z,101858.84
2023-08-12T01:44:10.921Z,101854.34
2023-08-12T01:46:39.186Z,101845.41
2023-08-12T01:49:07.618Z,101848.94
2023-08-12T01:51:35.855Z,101855.22
2023-08-12T01:54:04.579Z,101855.38
2023-08-12T01:56:34.110Z,101865.47
2023-08-12T01:59:02.342Z,101858.50
2023-08-12T02:01:30.562Z,101859.44
2023-08-12T02:03:58.844Z,101858.56
2023-08-12T02:06:27.120Z,101857.78
2023-08-12T02:08:55.243Z,101852.47
2023-08-12T02:11:23.449Z,101853.41
2023-08-12T02:13:53.114Z,101851.81
2023-08-12T02:16:21.887Z,101854.53
2023-08-12T02:19:10.493Z,101859.16
2023-08-12T02:21:38.831Z,101860.25
2023-08-12T02:24:07.844Z,101860.31
2023-08-12T02:26:36.289Z,101858.72
2023-08-12T02:29:06.312Z,101858.91
2023-08-12T02:31:35.325Z,101849.91
2023-08-12T02:34:03.840Z,101851.44
2023-08-12T02:36:32.171Z,101851.31
2023-08-12T02:39:00.932Z,101857.22
2023-08-12T02:41:29.137Z,101858.66
2023-08-12T02:43:57.679Z,101853.13
2023-08-12T02:46:27.317Z,101845.63
2023-08-12T02:48:55.622Z,101846.25
2023-08-12T02:51:23.746Z,101855.13
2023-08-12T02:53:51.967Z,101859.41
2023-08-12T02:56:20.166Z,101862.72
2023-08-12T02:58:49.210Z,101854.41
2023-08-12T03:01:17.941Z,101850.47
2023-08-12T03:03:47.649Z,101852.88
2023-08-12T03:06:15.978Z,101843.78
2023-08-12T03:08:44.710Z,101856.94
2023-08-12T03:11:12.960Z,101856.88
2023-08-12T03:13:41.203Z,101845.94
2023-08-12T03:16:14.317Z,101849.50
2023-08-12T03:18:44.520Z,101852.06
2023-08-12T03:21:15.148Z,101850.69
2023-08-12T03:23:43.782Z,101854.81
2023-08-12T03:26:12.859Z,101852.53
2023-08-12T03:28:41.097Z,101854.69
2023-08-12T03:31:10.645Z,101864.44
2023-08-12T03:33:38.910Z,101862.41
2023-08-12T03:36:08.462Z,101865.88
2023-08-12T03:38:38.113Z,101867.81
2023-08-12T03:41:07.220Z,101874.28
2023-08-12T03:43:36.062Z,101865.75
2023-08-12T03:46:04.273Z,101862.09
2023-08-12T03:48:34.086Z,101862.28
2023-08-12T03:51:02.719Z,101872.19
2023-08-12T03:53:30.907Z,101872.00
2023-08-12T03:56:00.534Z,101875.59
2023-08-12T03:58:31.261Z,101870.59
2023-08-12T04:01:00.372Z,101865.81
2023-08-12T04:03:28.999Z,101870.78
2023-08-12T04:05:57.306Z,101878.38
2023-08-12T04:08:25.963Z,101864.69
2023-08-12T04:10:54.604Z,101859.28
2023-08-12T04:13:24.097Z,101867.56
2023-08-12T04:15:54.351Z,101855.19
2023-08-12T04:18:22.961Z,101864.59
2023-08-12T04:20:53.013Z,101869.66
2023-08-12T04:23:21.963Z,101866.38
2023-08-12T04:25:50.535Z,101864.00
2023-08-12T04:28:20.513Z,101862.09
2023-08-12T04:30:53.943Z,101867.28
2023-08-12T04:33:25.506Z,101859.91
2023-08-12T04:35:55.191Z,101860.13
2023-08-12T04:38:25.402Z,101857.50
2023-08-12T04:40:56.756Z,101858.34
2023-08-12T04:43:25.348Z,101843.81
2023-08-12T04:45:55.907Z,101843.81
2023-08-12T04:48:24.707Z,101836.47
2023-08-12T04:50:52.913Z,101844.50
2023-08-12T04:53:21.253Z,101846.38
2023-08-12T04:55:52.807Z,101842.97
2023-08-12T04:58:21.591Z,101841.53
2023-08-12T05:00:50.737Z,101837.03
2023-08-12T05:03:20.994Z,101835.00
2023-08-12T05:05:52.882Z,101848.19
2023-08-12T05:08:25.456Z,101845.31
2023-08-12T05:10:53.754Z,101835.69
2023-08-12T05:13:24.662Z,101835.84
2023-08-12T05:15:54.084Z,101841.03
2023-08-12T05:18:24.467Z,101839.38
2023-08-12T05:20:54.324Z,101839.38
2023-08-12T05:23:23.477Z,101843.91
2023-08-12T05:25:54.431Z,101846.06
2023-08-12T05:28:24.074Z,101841.31
2023-08-12T05:30:52.320Z,101856.78
2023-08-12T05:33:20.668Z,101844.72
2023-08-12T05:35:51.089Z,101853.13
2023-08-12T05:38:19.830Z,101843.78
2023-08-12T05:40:48.318Z,101841.34
2023-08-12T05:43:16.721Z,101838.75
2023-08-12T05:45:45.021Z,101837.09
2023-08-12T05:48:13.581Z,101835.31
2023-08-12T05:50:41.890Z,101840.75
2023-08-12T05:53:11.490Z,101849.44
2023-08-12T05:55:39.710Z,101848.25
2023-08-12T05:58:09.744Z,101840.19
2023-08-12T06:00:37.956Z,101837.75
2023-08-12T06:03:06.641Z,101834.13
2023-08-12T06:05:34.885Z,101827.22
2023-08-12T06:08:03.077Z,101826.16
2023-08-12T06:10:33.414Z,101832.22
2023-08-12T06:13:01.631Z,101829.81
2023-08-12T06:15:30.763Z,101831.06
2023-08-12T06:17:59.091Z,101829.25
2023-08-12T06:20:27.568Z,101832.63
2023-08-12T06:22:55.945Z,101846.91
2023-08-12T06:25:24.393Z,101845.56
2023-08-12T06:27:54.170Z,101835.03
2023-08-12T06:30:23.263Z,101840.09
2023-08-12T06:32:51.790Z,101839.44
2023-08-12T06:35:20.368Z,101839.69
2023-08-12T06:37:48.643Z,101843.81
2023-08-12T06:40:17.093Z,101831.16
2023-08-12T06:42:45.447Z,101838.06
2023-08-12T06:45:15.300Z,101842.94
2023-08-12T06:47:43.591Z,101840.41
2023-08-12T06:50:11.997Z,101840.81
2023-08-12T06:52:40.348Z,101848.72
2023-08-12T06:55:09.181Z,101845.84
2023-08-12T06:57:37.549Z,101849.81
2023-08-12T07:00:06.721Z,101846.31
2023-08-12T07:02:36.770Z,101835.88
2023-08-12T07:05:05.882Z,101847.69
2023-08-12T07:07:34.229Z,101849.28
2023-08-12T07:10:02.485Z,101846.41
2023-08-12T07:12:32.067Z,101848.06
2023-08-12T07:15:00.507Z,101843.00
2023-08-12T07:17:28.684Z,101850.81
2023-08-12T07:19:58.443Z,101857.97
2023-08-12T07:22:26.801Z,101852.81
2023-08-12T07:24:55.587Z,101857.63
2023-08-12T07:27:23.903Z,101852.50
2023-08-12T07:29:52.171Z,101852.88
2023-08-12T07:32:20.485Z,101860.81
2023-08-12T07:34:48.738Z,101859.13
2023-08-12T07:37:18.429Z,101856.09
2023-08-12T07:39:46.741Z,101867.41
2023-08-12T07:42:15.051Z,101867.06
2023-08-12T07:44:43.258Z,101860.53
2023-08-12T07:47:11.567Z,101856.75
2023-08-12T07:49:40.364Z,101855.88
2023-08-12T07:52:08.782Z,101858.22
2023-08-12T07:54:38.639Z,101853.09
2023-08-12T07:57:07.283Z,101850.72
2023-08-12T07:59:35.598Z,101853.97
2023-08-12T08:02:04.455Z,101856.59
2023-08-12T08:04:32.772Z,101860.97
2023-08-12T08:07:00.995Z,101852.50
2023-08-12T08:09:35.125Z,101860.16
2023-08-12T08:12:05.457Z,101862.50
2023-08-12T08:14:33.933Z,101857.13
2023-08-12T08:17:03.278Z,101874.06
2023-08-12T08:19:32.574Z,101862.53
2023-08-12T08:22:01.881Z,101862.09
2023-08-12T08:24:30.967Z,101870.41
2023-08-12T08:27:06.086Z,101877.53
2023-08-12T08:29:38.599Z,101871.78
2023-08-12T08:32:17.040Z,101869.78
2023-08-12T08:35:30.496Z,101867.84
2023-08-12T08:38:37.295Z,101860.88
2023-08-12T08:41:39.545Z,101867.75
2023-08-12T08:44:46.420Z,101868.56
2023-08-12T08:47:51.217Z,101875.34
2023-08-12T08:54:28.552Z,101868.38
2023-08-12T08:57:27.433Z,101877.09
2023-08-12T09:00:37.163Z,101871.69
2023-08-12T09:03:19.697Z,101870.88
2023-08-12T09:09:25.005Z,101868.81
2023-08-12T09:12:27.635Z,101871.44
2023-08-12T09:15:41.295Z,101874.22
2023-08-12T09:18:13.455Z,101871.22
2023-08-12T09:20:43.076Z,101881.31
2023-08-12T09:23:12.205Z,101881.88
2023-08-12T09:25:45.250Z,101881.03
2023-08-12T09:28:14.989Z,101879.88
2023-08-12T09:30:43.608Z,101879.38
2023-08-12T09:33:13.345Z,101886.00
2023-08-12T09:35:45.627Z,101878.78
2023-08-12T09:38:15.186Z,101887.41
2023-08-12T09:40:44.051Z,101884.50
2023-08-12T09:43:12.799Z,101879.41
2023-08-12T09:45:42.021Z,101879.31
2023-08-12T09:48:14.987Z,101882.09
2023-08-12T09:50:44.879Z,101884.38
2023-08-12T09:53:13.161Z,101879.50
2023-08-12T09:58:50.500Z,101878.44
2023-08-12T10:01:21.726Z,101882.03
2023-08-12T10:03:54.092Z,101881.81
2023-08-12T10:06:23.466Z,101877.97
2023-08-12T10:08:52.977Z,101876.50
2023-08-12T10:11:21.228Z,101869.47
2023-08-12T10:13:49.808Z,101874.81
2023-08-12T10:16:19.666Z,101874.00
2023-08-12T10:18:50.005Z,101872.13
2023-08-12T10:21:20.966Z,101870.84
2023-08-12T10:23:49.652Z,101875.31
2023-08-12T10:26:19.909Z,101882.44
2023-08-12T10:28:50.086Z,101881.50
2023-08-12T10:31:21.344Z,101872.72
2023-08-12T10:33:51.336Z,101875.81
2023-08-12T10:36:24.164Z,101871.03
2023-08-12T10:38:52.523Z,101866.44
2023-08-12T10:41:45.419Z,101870.22
2023-08-12T10:44:50.539Z,101873.53
2023-08-12T10:47:52.468Z,101868.94
2023-08-12T10:50:37.263Z,101869.44
2023-08-12T10:53:38.741Z,101867.88
2023-08-12T10:56:14.195Z,101868.13
2023-08-12T10:59:07.521Z,101861.69
2023-08-12T11:02:08.871Z,101872.81
2023-08-12T11:04:40.091Z,101868.72
2023-08-12T11:07:17.708Z,101868.50
2023-08-12T11:09:47.967Z,101865.25
2023-08-12T11:12:20.289Z,101866.88
2023-08-12T11:14:55.538Z,101863.16
2023-08-12T11:17:31.626Z,101867.88
2023-08-12T11:20:01.857Z,101872.03
2023-08-12T11:22:32.825Z,101865.06
2023-08-12T11:25:03.191Z,101866.47
2023-08-12T11:27:38.786Z,101877.34
2023-08-12T11:30:08.333Z,101860.75
2023-08-12T11:32:37.032Z,101864.84
2023-08-12T11:35:08.180Z,101873.66
2023-08-12T11:37:38.224Z,101867.19
2023-08-12T11:40:10.201Z,101869.06
2023-08-12T11:42:38.934Z,101864.47
2023-08-12T11:45:13.315Z,101862.53
2023-08-12T11:47:58.792Z,101860.75
2023-08-12T11:50:38.195Z,101863.50
2023-08-12T11:53:25.287Z,101868.84
2023-08-12T11:56:04.522Z,101872.16
2023-08-12T11:58:53.625Z,101860.75
2023-08-12T12:01:33.505Z,101859.91
2023-08-12T12:04:31.694Z,101859.91
2023-08-12T12:07:19.825Z,101860.66
2023-08-12T12:09:48.952Z,101857.81
2023-08-12T12:12:18.573Z,101854.06
2023-08-12T12:14:49.234Z,101855.31
2023-08-12T12:17:17.636Z,101865.06
2023-08-12T12:19:45.948Z,101854.44
2023-08-12T12:22:14.439Z,101851.34
2023-08-12T12:24:49.691Z,101854.19
2023-08-12T12:27:19.421Z,101855.19
2023-08-12T12:29:47.755Z,101853.94
2023-08-12T12:32:16.141Z,101857.44
2023-08-12T12:34:44.385Z,101861.50
2023-08-12T12:37:13.290Z,101855.31
2023-08-12T12:39:42.039Z,101857.16
2023-08-12T12:42:11.214Z,101846.97
2023-08-12T12:44:41.070Z,101843.72
2023-08-12T12:47:11.979Z,101840.13
2023-08-12T12:49:40.549Z,101840.13
2023-08-12T12:52:08.731Z,101840.63
2023-08-12T12:55:11.953Z,101843.97
2023-08-12T12:58:01.599Z,101832.22
2023-08-12T13:01:06.151Z,101837.31
2023-08-12T13:03:38.788Z,101837.41
2023-08-12T13:06:07.622Z,101833.72
2023-08-12T13:08:35.928Z,101831.59
2023-08-12T13:11:04.185Z,101830.97
2023-08-12T13:13:32.584Z,101842.25
2023-08-12T13:16:02.461Z,101832.09
2023-08-12T13:18:30.786Z,101835.03
2023-08-12T13:20:58.924Z,101836.03
2023-08-12T13:23:27.168Z,101842.19
2023-08-12T13:25:55.586Z,101835.00
2023-08-12T13:28:24.377Z,101827.59
2023-08-12T13:30:52.964Z,101820.91
2023-08-12T13:33:22.598Z,101819.19
2023-08-12T13:35:50.911Z,101819.66
2023-08-12T13:38:19.174Z,101815.31
2023-08-12T13:40:47.435Z,101811.59
2023-08-12T13:43:15.706Z,101809.16
2023-08-12T13:45:44.002Z,101817.69
2023-08-12T13:48:12.353Z,101814.31
2023-08-12T13:50:42.672Z,101812.59
2023-08-12T13:53:11.214Z,101819.28
2023-08-12T13:55:39.445Z,101815.94
2023-08-12T13:58:07.734Z,101811.09
2023-08-12T14:00:36.003Z,101815.66
2023-08-12T14:03:04.326Z,101819.38
2023-08-12T14:05:32.652Z,101816.44
2023-08-12T14:08:02.352Z,101818.03
2023-08-12T14:10:30.514Z,101818.78
2023-08-12T14:12:58.668Z,101823.84
2023-08-12T14:15:27.239Z,101821.34
2023-08-12T14:17:55.514Z,101821.22
2023-08-12T14:20:24.351Z,101822.69
2023-08-12T14:22:52.492Z,101825.78
2023-08-12T14:25:22.047Z,101823.78
2023-08-12T14:27:50.380Z,101819.25
2023-08-12T14:30:20.811Z,101817.06
2023-08-12T14:32:50.366Z,101824.13
2023-08-12T14:35:19.932Z,101815.72
2023-08-12T14:37:48.290Z,101817.44
2023-08-12T14:40:16.582Z,101810.50
2023-08-12T14:42:46.487Z,101815.75
2023-08-12T14:45:14.769Z,101821.81
2023-08-12T14:47:43.177Z,101819.19
2023-08-12T14:50:11.836Z,101815.50
2023-08-12T14:52:39.992Z,101816.00
2023-08-12T14:55:08.993Z,101822.03
2023-08-12T14:57:37.388Z,101814.25
2023-08-12T15:00:11.642Z,101820.03
2023-08-12T15:02:40.068Z,101806.16
2023-08-12T15:05:08.929Z,101825.22
2023-08-12T15:07:37.221Z,101826.19
2023-08-12T15:10:06.215Z,101825.31
2023-08-12T15:12:34.369Z,101822.06
2023-08-12T15:15:02.618Z,101822.75
2023-08-12T15:17:33.241Z,101825.69
2023-08-12T15:20:01.435Z,101828.47
2023-08-12T15:22:29.588Z,101822.28
2023-08-12T15:24:57.780Z,101826.63
2023-08-12T15:27:26.049Z,101835.09
2023-08-12T15:29:54.894Z,101829.28
2023-08-12T15:32:23.214Z,101827.78
2023-08-12T15:34:52.827Z,101833.47
2023-08-12T15:37:21.270Z,101828.72
2023-08-12T15:39:49.614Z,101822.78
2023-08-12T15:42:17.822Z,101822.97
2023-08-12T15:44:46.127Z,101825.25
2023-08-12T15:47:14.611Z,101814.88
2023-08-12T15:49:43.218Z,101815.78
2023-08-12T15:52:12.740Z,101824.38
2023-08-12T15:54:40.990Z,101814.50
2023-08-12T15:57:09.170Z,101809.06
2023-08-12T15:59:37.389Z,101817.53
2023-08-12T16:02:05.794Z,101818.03
2023-08-12T16:04:33.985Z,101815.34
2023-08-12T16:07:02.276Z,101820.13
2023-08-12T16:09:32.074Z,101813.38
2023-08-12T16:12:00.258Z,101807.38
2023-08-12T16:14:28.528Z,101807.28
2023-08-12T16:16:56.868Z,101810.31
2023-08-12T16:19:25.277Z,101803.16
2023-08-12T16:21:53.532Z,101812.97
2023-08-12T16:24:21.824Z,101812.13
2023-08-12T16:26:51.492Z,101820.69
2023-08-12T16:29:20.255Z,101814.19
2023-08-12T16:31:48.599Z,101815.50
2023-08-12T16:34:16.854Z,101815.81
2023-08-12T16:36:46.175Z,101808.13
2023-08-12T16:39:14.987Z,101801.94
2023-08-12T16:41:43.489Z,101808.25
2023-08-12T16:44:13.122Z,101811.69
2023-08-12T16:46:41.538Z,101818.97
2023-08-12T16:49:09.755Z,101813.25
2023-08-12T16:51:38.134Z,101822.25
2023-08-12T16:54:06.826Z,101814.13
2023-08-12T16:56:35.098Z,101815.72
2023-08-12T16:59:03.402Z,101821.41
2023-08-12T17:01:33.038Z,101815.19
2023-08-12T17:04:02.717Z,101813.56
2023-08-12T17:06:31.128Z,101811.97
2023-08-12T17:08:59.298Z,101810.72
2023-08-12T17:11:27.719Z,101816.16
2023-08-12T17:13:55.989Z,101813.63
2023-08-12T17:16:24.264Z,101818.50
2023-08-12T17:18:54.012Z,101812.53
2023-08-12T17:21:23.147Z,101812.16
2023-08-12T17:23:51.408Z,101813.13
2023-08-12T17:26:19.647Z,101812.16
2023-08-12T17:28:47.830Z,101812.06
2023-08-12T17:31:17.574Z,101812.81
2023-08-12T17:33:46.130Z,101816.72
2023-08-12T17:36:15.836Z,101806.59
2023-08-12T17:38:44.218Z,101814.41
2023-08-12T17:41:12.637Z,101808.06
2023-08-12T17:43:42.410Z,101815.38
2023-08-12T17:46:10.893Z,101809.88
2023-08-12T17:48:39.136Z,101810.19
2023-08-12T17:51:13.520Z,101805.91
2023-08-12T17:53:43.697Z,101803.59
2023-08-12T17:56:12.171Z,101808.88
2023-08-12T17:58:40.441Z,101804.22
2023-08-12T18:01:08.667Z,101806.53
2023-08-12T18:03:37.006Z,101804.25
2023-08-12T18:06:06.005Z,101800.94
2023-08-12T18:08:34.845Z,101802.91
2023-08-12T18:11:05.025Z,101801.50
2023-08-12T18:13:34.261Z,101798.13
2023-08-12T18:16:02.541Z,101803.75
2023-08-12T18:18:31.220Z,101799.97
2023-08-12T18:20:59.773Z,101797.63
2023-08-12T18:23:29.942Z,101797.22
2023-08-12T18:25:58.083Z,101799.13
2023-08-12T18:28:27.724Z,101795.56
2023-08-12T18:30:55.934Z,101795.91
2023-08-12T18:33:24.244Z,101790.72
2023-08-12T18:35:52.565Z,101785.25
2023-08-12T18:38:20.883Z,101793.31
2023-08-12T18:40:49.620Z,101786.09
2023-08-12T18:43:17.841Z,101788.16
2023-08-12T18:45:47.791Z,101793.00
2023-08-12T18:48:16.336Z,101787.69
2023-08-12T18:50:44.550Z,101796.66
2023-08-12T18:53:13.253Z,101790.41
2023-08-12T18:55:41.583Z,101798.56
2023-08-12T18:58:09.785Z,101793.84
2023-08-12T19:00:38.059Z,101775.69
2023-08-12T19:03:08.185Z,101783.44
2023-08-12T19:05:37.595Z,101784.38
2023-08-12T19:08:06.330Z,101789.78
2023-08-12T19:10:34.657Z,101787.84
2023-08-12T19:13:02.887Z,101793.25
2023-08-12T19:15:31.176Z,101785.16
2023-08-12T19:17:59.416Z,101788.38
2023-08-12T19:20:29.019Z,101785.69
2023-08-12T19:23:23.130Z,101787.44
2023-08-12T19:25:51.477Z,101785.16
2023-08-12T19:28:19.569Z,101795.06
2023-08-12T19:30:50.969Z,101793.16
2023-08-12T19:33:20.422Z,101787.44
2023-08-12T19:35:50.999Z,101791.25
2023-08-12T19:38:19.502Z,101789.75
2023-08-12T19:40:47.750Z,101788.63
2023-08-12T19:43:16.035Z,101796.63
2023-08-12T19:45:44.171Z,101794.47
2023-08-12T19:48:12.501Z,101789.50
2023-08-12T19:50:41.467Z,101785.16
2023-08-12T19:53:11.520Z,101785.41
2023-08-12T19:55:39.845Z,101790.28
2023-08-12T19:58:08.029Z,101781.47
2023-08-12T20:00:36.308Z,101791.03
2023-08-12T20:03:04.777Z,101788.47
2023-08-12T20:05:33.245Z,101782.06
2023-08-12T20:08:01.677Z,101775.00
2023-08-12T20:10:31.350Z,101780.47
2023-08-12T20:13:01.127Z,101781.69
2023-08-12T20:15:29.554Z,101786.31
2023-08-12T20:17:57.767Z,101787.53
2023-08-12T20:20:26.919Z,101784.22
2023-08-12T20:23:05.701Z,101794.06
2023-08-12T20:25:37.929Z,101791.97
2023-08-12T20:28:07.081Z,101787.72
2023-08-12T20:30:35.360Z,101776.25
2023-08-12T20:33:04.731Z,101778.16
2023-08-12T20:35:33.847Z,101777.34
2023-08-12T20:38:02.459Z,101766.41
2023-08-12T20:40:30.657Z,101769.81
2023-08-12T20:43:00.389Z,101771.84
2023-08-12T20:45:33.130Z,101769.47
2023-08-12T20:48:02.223Z,101770.53
2023-08-12T20:50:30.533Z,101760.38
2023-08-12T20:52:59.258Z,101771.09
2023-08-12T20:55:28.265Z,101758.19
2023-08-12T20:57:56.425Z,101756.50
2023-08-12T21:00:26.190Z,101754.53
2023-08-12T21:02:54.541Z,101755.09
2023-08-12T21:05:22.899Z,101755.47
2023-08-12T21:07:52.933Z,101754.13
2023-08-12T21:10:22.440Z,101746.84
2023-08-12T21:12:49.605Z,101750.47
2023-08-12T21:15:17.825Z,101751.66
2023-08-12T21:17:48.363Z,101750.31
2023-08-12T21:20:16.911Z,101753.50
2023-08-12T21:22:48.705Z,101753.38
2023-08-12T21:25:17.175Z,101747.91
2023-08-12T21:27:45.285Z,101748.38
2023-08-12T21:30:14.203Z,101746.97
2023-08-12T21:32:42.516Z,101749.44
2023-08-12T21:35:12.110Z,101736.19
2023-08-12T21:37:40.360Z,101739.94
2023-08-12T21:40:10.013Z,101731.31
2023-08-12T21:42:38.509Z,101726.69
2023-08-12T21:45:07.712Z,101733.38
2023-08-12T21:47:35.948Z,101740.47
2023-08-12T21:50:04.156Z,101725.94
2023-08-12T21:52:33.720Z,101725.75
2023-08-12T21:55:01.982Z,101727.69
2023-08-12T21:57:31.603Z,101723.06
2023-08-12T21:59:59.832Z,101725.94
2023-08-12T22:02:29.196Z,101727.00
2023-08-12T22:04:57.453Z,101726.00
2023-08-12T22:07:25.891Z,101725.94
2023-08-12T22:09:55.517Z,101728.28
2023-08-12T22:12:23.749Z,101730.72
2023-08-12T22:14:52.244Z,101723.84
2023-08-12T22:17:20.457Z,101721.31
2023-08-12T22:19:49.165Z,101723.78
2023-08-12T22:22:20.158Z,101715.44
2023-08-12T22:24:49.169Z,101722.50
2023-08-12T22:27:18.781Z,101716.75
2023-08-12T22:29:47.126Z,101704.25
2023-08-12T22:32:15.760Z,101704.50
2023-08-12T22:34:44.265Z,101701.81
2023-08-12T22:37:12.415Z,101701.47
2023-08-12T22:39:40.631Z,101702.31
2023-08-12T22:42:09.318Z,101695.63
2023-08-12T22:44:38.879Z,101694.81
2023-08-12T22:47:07.472Z,101697.53
2023-08-12T22:49:35.583Z,101685.88
2023-08-12T22:52:03.953Z,101697.25
2023-08-12T22:54:32.266Z,101697.97
2023-08-12T22:57:00.515Z,101688.94
2023-08-12T22:59:29.861Z,101691.25
2023-08-12T23:01:59.638Z,101695.53
2023-08-12T23:04:27.920Z,101697.03
2023-08-12T23:06:56.068Z,101695.88
2023-08-12T23:09:24.331Z,101700.56
2023-08-12T23:11:52.455Z,101697.06
2023-08-12T23:14:20.638Z,101697.34
2023-08-12T23:16:48.954Z,101699.94
2023-08-12T23:19:18.594Z,101691.66
2023-08-12T23:21:46.791Z,101694.06
2023-08-12T23:24:15.039Z,101689.78
2023-08-12T23:26:43.402Z,101691.53
2023-08-12T23:29:11.619Z,101695.69
2023-08-12T23:31:39.925Z,101691.44
2023-08-12T23:34:08.036Z,101691.38
2023-08-12T23:36:37.831Z,101692.31
2023-08-12T23:39:06.815Z,101700.31
2023-08-12T23:41:35.061Z,101695.66
2023-08-12T23:44:03.477Z,101708.97
2023-08-12T23:46:31.811Z,101705.34
2023-08-12T23:49:00.177Z,101712.72
2023-08-12T23:51:28.455Z,101711.81
2023-08-12T23:53:58.353Z,101709.25
2023-08-12T23:56:26.683Z,101706.66
2023-08-12T23:58:54.969Z,101705.69
